Time;durP1;ratioP1;P1;durP2;ratioP2;P2;SDS_P1;SDS_P2;PMS_P1;PMS_P2;Temp;Humidity;BMP_temperature;BMP_pressure;BME280_temperature;BME280_humidity;BME280_pressure;Samples;Min_cycle;Max_cycle;Signal;HPM_P1;HPM_P2
2023/07/30 00:01:56;;;;;;;2.40;2.20;;;;;;;;;;5050823;28;20203;-28
2023/07/30 00:04:23;;;;;;;2.73;2.50;;;;;;;;;;5051414;28;20218;-30
2023/07/30 00:06:50;;;;;;;7.30;2.53;;;;;;;;;;5036332;28;20200;-31
2023/07/30 00:09:18;;;;;;;3.00;2.40;;;;;;;;;;5039843;28;20219;-27
2023/07/30 00:11:46;;;;;;;2.77;2.20;;;;;;;;;;5030802;28;20224;-26
2023/07/30 00:14:13;;;;;;;3.03;2.20;;;;;;;;;;5038649;28;20212;-25
2023/07/30 00:16:40;;;;;;;4.43;2.23;;;;;;;;;;5035513;28;20199;-26
2023/07/30 00:19:07;;;;;;;2.83;2.13;;;;;;;;;;5052121;28;20230;-28
2023/07/30 00:21:34;;;;;;;2.50;2.30;;;;;;;;;;5044332;28;20202;-29
2023/07/30 00:24:01;;;;;;;2.13;2.00;;;;;;;;;;5041566;28;20213;-28
2023/07/30 00:26:29;;;;;;;2.43;2.23;;;;;;;;;;5031480;28;20589;-28
2023/07/30 00:28:57;;;;;;;3.63;2.30;;;;;;;;;;5042777;28;20299;-26
2023/07/30 00:31:24;;;;;;;2.63;2.43;;;;;;;;;;5045639;28;20224;-29
2023/07/30 00:33:51;;;;;;;2.07;1.97;;;;;;;;;;5052429;28;20208;-29
2023/07/30 00:36:18;;;;;;;3.77;1.97;;;;;;;;;;5044296;28;20210;-29
2023/07/30 00:38:45;;;;;;;3.17;2.03;;;;;;;;;;5044401;28;20230;-28
2023/07/30 00:41:12;;;;;;;2.07;1.83;;;;;;;;;;5031119;28;20567;-26
2023/07/30 00:43:40;;;;;;;2.73;2.27;;;;;;;;;;5041634;28;20215;-30
2023/07/30 00:46:08;;;;;;;4.90;2.00;;;;;;;;;;5043478;28;20233;-28
2023/07/30 00:48:35;;;;;;;2.27;2.07;;;;;;;;;;5051934;28;20231;-29
2023/07/30 00:51:02;;;;;;;2.47;2.10;;;;;;;;;;5036743;28;20231;-27
2023/07/30 00:53:29;;;;;;;2.50;2.30;;;;;;;;;;5038945;28;20221;-27
2023/07/30 00:55:56;;;;;;;2.87;2.50;;;;;;;;;;5033610;28;20209;-27
2023/07/30 00:58:24;;;;;;;2.73;2.40;;;;;;;;;;5038174;28;20214;-28
2023/07/30 01:00:53;;;;;;;3.10;2.47;;;;;;;;;;5033144;28;20684;-27
2023/07/30 01:03:20;;;;;;;2.43;2.23;;;;;;;;;;5031068;28;20213;-28
2023/07/30 01:05:47;;;;;;;1.90;1.80;;;;;;;;;;5039834;28;20210;-30
2023/07/30 01:08:15;;;;;;;3.63;2.10;;;;;;;;;;5030416;28;20218;-27
2023/07/30 01:10:42;;;;;;;2.97;2.43;;;;;;;;;;5030251;28;20226;-25
2023/07/30 01:13:10;;;;;;;2.50;2.03;;;;;;;;;;5035202;28;20484;-28
2023/07/30 01:15:38;;;;;;;4.77;2.50;;;;;;;;;;5032517;28;20237;-30
2023/07/30 01:18:06;;;;;;;2.80;2.37;;;;;;;;;;5039064;28;20212;-28
2023/07/30 01:20:33;;;;;;;2.80;2.60;;;;;;;;;;5032432;28;20211;-26
2023/07/30 01:23:02;;;;;;;4.27;2.50;;;;;;;;;;5042126;28;20691;-28
2023/07/30 01:25:30;;;;;;;2.37;2.17;;;;;;;;;;5037063;28;20516;-28
2023/07/30 01:28:00;;;;;;;2.40;2.20;;;;;;;;;;5035658;28;20207;-28
2023/07/30 01:30:28;;;;;;;3.30;2.17;;;;;;;;;;5045494;28;20325;-28
2023/07/30 01:32:56;;;;;;;4.10;2.73;;;;;;;;;;5050869;28;20209;-28
2023/07/30 01:35:27;;;;;;;3.23;2.30;;;;;;;;;;5046820;28;20221;-28
2023/07/30 01:37:54;;;;;;;3.60;2.63;;;;;;;;;;5037636;28;20211;-27
2023/07/30 01:40:23;;;;;;;2.33;2.13;;;;;;;;;;5051149;28;20220;-27
2023/07/30 01:42:50;;;;;;;3.03;2.80;;;;;;;;;;5039453;28;20683;-24
2023/07/30 01:45:17;;;;;;;4.30;2.10;;;;;;;;;;5037323;28;20644;-30
2023/07/30 01:47:44;;;;;;;2.53;1.90;;;;;;;;;;5042677;28;20199;-27
2023/07/30 01:50:12;;;;;;;3.37;2.37;;;;;;;;;;5030044;28;20238;-27
2023/07/30 01:52:39;;;;;;;3.70;2.27;;;;;;;;;;5039824;28;20215;-28
2023/07/30 01:55:06;;;;;;;3.57;2.20;;;;;;;;;;5047254;28;20203;-30
2023/07/30 01:57:35;;;;;;;3.30;2.53;;;;;;;;;;5035295;28;20216;-26
2023/07/30 02:00:03;;;;;;;6.60;2.60;;;;;;;;;;5034619;28;20237;-30
2023/07/30 02:02:30;;;;;;;2.93;2.33;;;;;;;;;;5030743;28;20207;-31
2023/07/30 02:04:57;;;;;;;3.70;2.40;;;;;;;;;;5028478;28;20214;-28
2023/07/30 02:07:24;;;;;;;5.53;2.60;;;;;;;;;;5029746;28;20206;-32
2023/07/30 02:09:51;;;;;;;3.40;2.40;;;;;;;;;;5030211;28;20319;-31
2023/07/30 02:12:18;;;;;;;3.03;2.77;;;;;;;;;;5031935;28;20217;-25
2023/07/30 02:14:47;;;;;;;2.90;2.70;;;;;;;;;;5043773;28;20221;-29
2023/07/30 02:17:14;;;;;;;2.93;2.60;;;;;;;;;;5038036;28;20219;-29
2023/07/30 02:19:41;;;;;;;4.23;2.63;;;;;;;;;;5031368;28;20232;-27
2023/07/30 02:22:08;;;;;;;3.50;2.87;;;;;;;;;;5041050;28;20645;-30
2023/07/30 02:24:35;;;;;;;3.00;2.63;;;;;;;;;;5041870;28;20203;-29
2023/07/30 02:27:02;;;;;;;2.60;2.40;;;;;;;;;;5042473;28;20207;-29
2023/07/30 02:29:31;;;;;;;2.83;2.60;;;;;;;;;;5049886;28;20227;-27
2023/07/30 02:31:59;;;;;;;3.73;2.73;;;;;;;;;;5031621;28;20248;-29
2023/07/30 02:34:27;;;;;;;2.70;2.50;;;;;;;;;;5030502;28;20200;-29
2023/07/30 02:36:54;;;;;;;3.47;3.13;;;;;;;;;;5032958;28;20230;-27
2023/07/30 02:39:21;;;;;;;3.30;2.53;;;;;;;;;;5029574;28;20240;-31
2023/07/30 02:41:48;;;;;;;4.13;2.67;;;;;;;;;;5039900;28;20249;-29
2023/07/30 02:44:15;;;;;;;3.07;2.37;;;;;;;;;;5046569;28;20207;-29
2023/07/30 02:46:42;;;;;;;4.63;2.97;;;;;;;;;;5032434;28;20207;-31
2023/07/30 02:49:11;;;;;;;3.07;2.67;;;;;;;;;;5050439;28;20222;-30
2023/07/30 02:51:38;;;;;;;3.23;2.67;;;;;;;;;;5041150;28;20230;-29
2023/07/30 02:54:06;;;;;;;2.70;2.37;;;;;;;;;;5037730;28;20234;-30
2023/07/30 02:56:34;;;;;;;2.50;2.30;;;;;;;;;;5031930;28;20233;-29
2023/07/30 02:59:01;;;;;;;4.80;2.87;;;;;;;;;;5042275;28;20232;-30
2023/07/30 03:01:28;;;;;;;2.70;2.50;;;;;;;;;;5045850;28;20664;-31
2023/07/30 03:03:55;;;;;;;3.27;2.77;;;;;;;;;;5033909;28;20203;-31
2023/07/30 03:06:23;;;;;;;2.40;2.20;;;;;;;;;;5039253;28;20208;-28
2023/07/30 03:08:50;;;;;;;2.80;2.13;;;;;;;;;;5047688;28;20230;-29
2023/07/30 03:11:18;;;;;;;3.70;2.43;;;;;;;;;;5031926;28;20224;-31
2023/07/30 03:13:45;;;;;;;4.17;2.50;;;;;;;;;;5038518;28;20203;-27
2023/07/30 03:16:12;;;;;;;2.87;2.10;;;;;;;;;;5042017;28;20227;-30
2023/07/30 03:18:39;;;;;;;2.70;2.50;;;;;;;;;;5049354;28;20226;-29
2023/07/30 03:21:06;;;;;;;3.30;2.47;;;;;;;;;;5041321;28;20200;-28
2023/07/30 03:23:34;;;;;;;3.87;2.90;;;;;;;;;;5060352;28;20202;-29
2023/07/30 03:26:01;;;;;;;3.13;2.60;;;;;;;;;;5054943;28;20206;-32
2023/07/30 03:28:29;;;;;;;4.30;2.50;;;;;;;;;;5041632;28;20227;-30
2023/07/30 03:30:56;;;;;;;2.33;2.10;;;;;;;;;;5051010;28;20222;-26
2023/07/30 03:33:23;;;;;;;2.70;2.50;;;;;;;;;;5053615;28;20523;-31
2023/07/30 03:35:50;;;;;;;2.57;2.37;;;;;;;;;;5048328;28;20199;-29
2023/07/30 03:38:17;;;;;;;2.80;2.50;;;;;;;;;;5043815;28;20202;-29
2023/07/30 03:40:45;;;;;;;2.33;2.13;;;;;;;;;;5036074;28;20203;-29
2023/07/30 03:43:12;;;;;;;2.43;2.23;;;;;;;;;;5035731;28;20199;-28
2023/07/30 03:45:40;;;;;;;2.67;2.20;;;;;;;;;;5040467;28;20204;-29
2023/07/30 03:48:07;;;;;;;2.57;2.37;;;;;;;;;;5032752;28;20203;-28
2023/07/30 03:50:34;;;;;;;2.30;2.10;;;;;;;;;;5033802;28;20215;-30
2023/07/30 03:53:01;;;;;;;2.80;2.50;;;;;;;;;;5043327;28;20234;-29
2023/07/30 03:55:28;;;;;;;2.30;2.10;;;;;;;;;;5046544;28;20219;-26
2023/07/30 03:57:58;;;;;;;4.27;2.27;;;;;;;;;;5038509;28;20308;-29
2023/07/30 04:00:25;;;;;;;4.67;2.47;;;;;;;;;;5033417;28;20236;-30
2023/07/30 04:02:52;;;;;;;2.40;2.23;;;;;;;;;;5032793;28;20199;-29
2023/07/30 04:05:19;;;;;;;3.20;1.80;;;;;;;;;;5032655;28;20400;-27
2023/07/30 04:07:46;;;;;;;2.30;2.10;;;;;;;;;;5039205;28;20206;-29
2023/07/30 04:10:13;;;;;;;3.20;2.30;;;;;;;;;;5044622;28;20251;-27
2023/07/30 04:12:40;;;;;;;2.47;2.10;;;;;;;;;;5041545;28;20586;-28
2023/07/30 04:15:10;;;;;;;2.17;2.00;;;;;;;;;;5040248;28;20207;-31
2023/07/30 04:17:37;;;;;;;3.57;2.20;;;;;;;;;;5049801;28;20236;-29
2023/07/30 04:20:05;;;;;;;2.47;2.27;;;;;;;;;;5047913;28;20230;-27
2023/07/30 04:22:32;;;;;;;3.03;2.13;;;;;;;;;;5046101;28;20649;-26
2023/07/30 04:25:00;;;;;;;2.53;2.23;;;;;;;;;;5044101;28;20213;-29
2023/07/30 04:27:27;;;;;;;2.43;2.23;;;;;;;;;;5036966;28;20274;-31
2023/07/30 04:29:54;;;;;;;3.07;2.10;;;;;;;;;;5039351;28;20238;-27
2023/07/30 04:32:22;;;;;;;2.60;2.00;;;;;;;;;;5034740;28;20215;-27
2023/07/30 04:34:50;;;;;;;2.47;2.27;;;;;;;;;;5034302;28;20757;-30
2023/07/30 04:37:17;;;;;;;2.63;2.10;;;;;;;;;;5038527;28;20203;-28
2023/07/30 04:39:44;;;;;;;2.60;1.87;;;;;;;;;;5042445;28;20230;-29
2023/07/30 04:42:13;;;;;;;2.10;1.90;;;;;;;;;;5035449;28;20198;-28
2023/07/30 04:44:40;;;;;;;2.20;1.87;;;;;;;;;;5046763;28;20233;-28
2023/07/30 04:47:07;;;;;;;2.33;2.13;;;;;;;;;;5053319;28;20216;-27
2023/07/30 04:49:37;;;;;;;3.83;2.40;;;;;;;;;;5052972;28;20287;-30
2023/07/30 04:52:04;;;;;;;3.10;2.43;;;;;;;;;;5137173;22;20235;-27
2023/07/30 04:54:31;;;;;;;2.73;1.83;;;;;;;;;;5040125;28;20206;-29
2023/07/30 04:56:58;;;;;;;6.80;2.20;;;;;;;;;;5051567;28;20210;-29
2023/07/30 04:59:25;;;;;;;3.10;2.20;;;;;;;;;;5044779;28;20222;-30
2023/07/30 05:01:52;;;;;;;4.00;2.20;;;;;;;;;;5051130;28;20194;-26
2023/07/30 05:04:19;;;;;;;1.83;1.73;;;;;;;;;;5054282;28;20213;-26
2023/07/30 05:06:48;;;;;;;2.10;1.83;;;;;;;;;;5050546;28;20209;-27
2023/07/30 05:09:15;;;;;;;2.63;2.10;;;;;;;;;;5041252;28;20227;-27
2023/07/30 05:11:42;;;;;;;2.60;2.20;;;;;;;;;;5037455;28;20225;-27
2023/07/30 05:14:09;;;;;;;2.40;2.20;;;;;;;;;;5053118;28;20206;-28
2023/07/30 05:16:37;;;;;;;2.60;2.40;;;;;;;;;;5044794;28;20301;-27
2023/07/30 05:19:04;;;;;;;2.00;1.90;;;;;;;;;;5053603;28;20321;-27
2023/07/30 05:21:31;;;;;;;2.40;2.20;;;;;;;;;;5048975;28;20260;-25
2023/07/30 05:24:00;;;;;;;2.27;2.07;;;;;;;;;;5042059;28;20207;-30
2023/07/30 05:26:27;;;;;;;3.07;2.50;;;;;;;;;;5035442;28;20224;-29
2023/07/30 05:28:54;;;;;;;2.90;2.70;;;;;;;;;;5052831;28;20234;-29
2023/07/30 05:31:21;;;;;;;2.40;2.20;;;;;;;;;;5044705;28;20208;-28
2023/07/30 05:33:48;;;;;;;2.20;2.10;;;;;;;;;;5053800;28;20217;-25
2023/07/30 05:36:15;;;;;;;2.50;2.30;;;;;;;;;;5046842;28;20207;-30
2023/07/30 05:38:42;;;;;;;4.37;2.13;;;;;;;;;;5041024;28;20231;-29
2023/07/30 05:41:11;;;;;;;3.93;2.40;;;;;;;;;;5050914;28;20212;-28
2023/07/30 05:43:38;;;;;;;2.53;2.30;;;;;;;;;;5049622;28;20202;-29
2023/07/30 05:46:05;;;;;;;2.93;2.20;;;;;;;;;;5041964;28;20207;-30
2023/07/30 05:48:32;;;;;;;2.23;2.13;;;;;;;;;;5033063;28;20233;-28
2023/07/30 05:50:59;;;;;;;2.50;2.30;;;;;;;;;;5042701;28;20225;-26
2023/07/30 05:53:26;;;;;;;2.53;2.33;;;;;;;;;;5049509;28;20313;-25
2023/07/30 05:55:54;;;;;;;3.87;2.00;;;;;;;;;;5040576;28;20205;-30
2023/07/30 05:58:22;;;;;;;2.93;2.20;;;;;;;;;;5044432;28;20220;-28
2023/07/30 06:00:49;;;;;;;2.50;2.30;;;;;;;;;;5043118;28;20199;-31
2023/07/30 06:03:16;;;;;;;3.43;2.60;;;;;;;;;;5033113;28;20213;-30
2023/07/30 06:05:43;;;;;;;3.93;2.30;;;;;;;;;;5045778;28;20210;-25
2023/07/30 06:08:10;;;;;;;2.97;2.20;;;;;;;;;;5048572;28;20203;-27
2023/07/30 06:10:38;;;;;;;2.50;2.03;;;;;;;;;;5032631;28;20213;-29
2023/07/30 06:13:05;;;;;;;4.37;1.80;;;;;;;;;;5045554;28;20235;-28
2023/07/30 06:15:34;;;;;;;1.90;1.80;;;;;;;;;;5039195;28;20222;-28
2023/07/30 06:18:02;;;;;;;1.70;1.60;;;;;;;;;;5033664;28;20200;-27
2023/07/30 06:20:30;;;;;;;2.07;1.87;;;;;;;;;;5044452;28;20233;-28
2023/07/30 06:22:57;;;;;;;1.60;1.50;;;;;;;;;;5052070;28;20290;-29
2023/07/30 06:25:24;;;;;;;3.63;1.90;;;;;;;;;;5052308;28;20208;-30
2023/07/30 06:27:51;;;;;;;1.63;1.30;;;;;;;;;;5046381;28;20216;-30
2023/07/30 06:30:18;;;;;;;2.00;1.90;;;;;;;;;;5042157;28;20225;-30
2023/07/30 06:32:47;;;;;;;2.07;1.70;;;;;;;;;;5052146;28;20216;-28
2023/07/30 06:35:14;;;;;;;1.80;1.70;;;;;;;;;;5050358;28;20223;-28
2023/07/30 06:37:41;;;;;;;4.03;1.80;;;;;;;;;;5051303;28;20292;-27
2023/07/30 06:40:09;;;;;;;2.57;2.00;;;;;;;;;;5052236;28;20228;-27
2023/07/30 06:42:36;;;;;;;1.83;1.73;;;;;;;;;;5048047;28;20209;-28
2023/07/30 06:45:03;;;;;;;2.47;1.80;;;;;;;;;;5046363;28;20242;-29
2023/07/30 06:47:30;;;;;;;3.97;2.00;;;;;;;;;;5031260;28;20206;-27
2023/07/30 06:49:59;;;;;;;1.97;1.60;;;;;;;;;;5035329;28;20239;-28
2023/07/30 06:52:26;;;;;;;1.90;1.80;;;;;;;;;;5043422;28;20239;-30
2023/07/30 06:54:53;;;;;;;4.37;2.20;;;;;;;;;;5049246;28;20203;-28
2023/07/30 06:57:20;;;;;;;2.27;2.07;;;;;;;;;;5046599;28;20218;-31
2023/07/30 06:59:47;;;;;;;2.17;1.87;;;;;;;;;;5048910;28;20237;-29
2023/07/30 07:02:14;;;;;;;2.30;2.10;;;;;;;;;;5052505;28;20195;-28
2023/07/30 07:04:41;;;;;;;2.20;2.00;;;;;;;;;;5052421;28;20213;-31
2023/07/30 07:07:10;;;;;;;2.40;1.60;;;;;;;;;;5049274;28;20283;-30
2023/07/30 07:09:37;;;;;;;2.10;1.73;;;;;;;;;;5043310;28;20231;-29
2023/07/30 07:12:04;;;;;;;2.70;1.87;;;;;;;;;;5038759;28;20208;-29
2023/07/30 07:14:31;;;;;;;3.07;1.73;;;;;;;;;;5041048;28;20213;-29
2023/07/30 07:16:58;;;;;;;1.90;1.80;;;;;;;;;;5041609;28;20200;-31
2023/07/30 07:19:25;;;;;;;2.20;2.00;;;;;;;;;;5051901;28;20232;-28
2023/07/30 07:21:53;;;;;;;2.80;1.80;;;;;;;;;;5047883;28;20216;-29
2023/07/30 07:24:21;;;;;;;1.60;1.50;;;;;;;;;;5031917;28;20252;-29
2023/07/30 07:26:48;;;;;;;2.60;1.93;;;;;;;;;;5035390;28;20212;-29
2023/07/30 07:29:15;;;;;;;1.57;1.47;;;;;;;;;;5045196;28;20226;-27
2023/07/30 07:31:42;;;;;;;1.80;1.70;;;;;;;;;;5031701;28;20206;-29
2023/07/30 07:34:09;;;;;;;2.20;2.00;;;;;;;;;;5032275;28;20229;-28
2023/07/30 07:36:37;;;;;;;2.00;1.53;;;;;;;;;;5036547;28;20210;-30
2023/07/30 07:39:04;;;;;;;5.33;1.90;;;;;;;;;;5049102;28;20318;-27
2023/07/30 07:41:33;;;;;;;1.90;1.50;;;;;;;;;;5049242;28;20220;-29
2023/07/30 07:44:00;;;;;;;1.77;1.67;;;;;;;;;;5045788;28;20209;-26
2023/07/30 07:46:27;;;;;;;1.67;1.57;;;;;;;;;;5043268;28;20295;-27
2023/07/30 07:48:54;;;;;;;3.10;1.73;;;;;;;;;;5054686;28;20258;-28
2023/07/30 07:51:21;;;;;;;2.10;1.73;;;;;;;;;;5050291;28;20209;-28
2023/07/30 07:53:48;;;;;;;1.87;1.70;;;;;;;;;;5054822;28;20229;-30
2023/07/30 07:56:16;;;;;;;3.93;2.20;;;;;;;;;;5042303;28;20236;-31
2023/07/30 07:58:44;;;;;;;3.10;1.60;;;;;;;;;;5051471;28;20222;-31
2023/07/30 08:01:11;;;;;;;2.70;1.70;;;;;;;;;;5046537;28;20297;-29
2023/07/30 08:03:40;;;;;;;1.60;1.50;;;;;;;;;;5055038;28;20205;-28
2023/07/30 08:06:07;;;;;;;2.10;1.13;;;;;;;;;;5052490;28;20205;-28
2023/07/30 08:08:35;;;;;;;2.27;1.13;;;;;;;;;;5047909;28;20228;-28
2023/07/30 08:11:06;;;;;;;1.37;1.27;;;;;;;;;;5042886;28;20213;-29
2023/07/30 08:13:34;;;;;;;1.20;1.13;;;;;;;;;;5053140;28;20240;-28
2023/07/30 08:16:02;;;;;;;1.07;1.07;;;;;;;;;;5035501;28;20262;-30
2023/07/30 08:18:29;;;;;;;2.17;1.30;;;;;;;;;;5034649;28;20228;-27
2023/07/30 08:20:56;;;;;;;2.03;1.13;;;;;;;;;;5044057;28;20205;-27
2023/07/30 08:23:24;;;;;;;2.87;1.40;;;;;;;;;;5051129;28;20212;-29
2023/07/30 08:25:51;;;;;;;0.90;0.90;;;;;;;;;;5054650;28;20258;-30
2023/07/30 08:28:18;;;;;;;1.07;1.07;;;;;;;;;;5045915;28;20204;-31
2023/07/30 08:30:45;;;;;;;1.30;1.20;;;;;;;;;;5046021;28;20204;-27
2023/07/30 08:33:14;;;;;;;1.10;1.00;;;;;;;;;;5054860;28;20234;-27
2023/07/30 08:35:41;;;;;;;1.00;1.00;;;;;;;;;;5054727;28;20218;-30
2023/07/30 08:38:08;;;;;;;1.00;1.00;;;;;;;;;;5048647;28;20200;-26
2023/07/30 08:40:35;;;;;;;1.97;1.30;;;;;;;;;;5054412;28;20292;-27
2023/07/30 08:43:04;;;;;;;1.30;1.20;;;;;;;;;;5049360;28;20211;-29
2023/07/30 08:45:31;;;;;;;3.47;0.90;;;;;;;;;;5039379;28;20266;-28
2023/07/30 08:47:58;;;;;;;1.17;1.07;;;;;;;;;;5051799;28;20225;-43
2023/07/30 08:50:27;;;;;;;1.23;1.00;;;;;;;;;;5049316;28;20266;-34
2023/07/30 08:52:55;;;;;;;1.10;1.00;;;;;;;;;;5043340;28;20219;-27
2023/07/30 08:55:23;;;;;;;1.37;1.27;;;;;;;;;;5032263;28;20213;-29
2023/07/30 08:57:51;;;;;;;2.33;1.10;;;;;;;;;;5044042;28;20212;-31
2023/07/30 09:00:20;;;;;;;1.20;1.10;;;;;;;;;;5049142;28;20228;-29
2023/07/30 09:02:49;;;;;;;1.37;1.23;;;;;;;;;;5051661;28;20225;-29
2023/07/30 09:05:16;;;;;;;1.17;0.90;;;;;;;;;;5052219;28;20212;-27
2023/07/30 09:07:45;;;;;;;1.30;1.30;;;;;;;;;;5051326;28;20204;-29
2023/07/30 09:10:12;;;;;;;1.63;1.17;;;;;;;;;;5045341;28;20315;-29
2023/07/30 09:12:39;;;;;;;1.63;1.23;;;;;;;;;;5046486;28;20216;-28
2023/07/30 09:15:07;;;;;;;1.27;1.00;;;;;;;;;;5050008;28;20204;-32
2023/07/30 09:17:34;;;;;;;2.33;1.20;;;;;;;;;;5038235;28;20202;-29
2023/07/30 09:20:03;;;;;;;1.10;1.03;;;;;;;;;;5040246;28;20298;-30
2023/07/30 09:22:38;;;;;;;1.50;1.20;;;;;;;;;;5043142;28;20259;-30
2023/07/30 09:25:10;;;;;;;1.30;1.23;;;;;;;;;;5069140;28;20235;-29
2023/07/30 09:27:38;;;;;;;1.83;1.10;;;;;;;;;;5051120;28;20212;-31
2023/07/30 09:30:05;;;;;;;1.00;1.00;;;;;;;;;;5055785;28;20232;-29
2023/07/30 09:32:53;;;;;;;;;;;;;;;;;;;;;
2023/07/30 09:35:20;;;;;;;1.30;1.20;;;;;;;;;;5067633;28;20218;-26
2023/07/30 09:37:47;;;;;;;1.30;1.20;;;;;;;;;;5047961;28;20213;-28
2023/07/30 09:40:18;;;;;;;1.37;1.20;;;;;;;;;;5045190;28;20243;-30
2023/07/30 09:42:46;;;;;;;1.37;1.27;;;;;;;;;;5048099;28;20217;-32
2023/07/30 09:45:20;;;;;;;2.23;1.43;;;;;;;;;;5044263;28;20200;-28
2023/07/30 09:47:48;;;;;;;1.20;1.20;;;;;;;;;;5035935;28;20203;-30
2023/07/30 09:50:16;;;;;;;1.30;1.30;;;;;;;;;;5034450;28;20313;-30
2023/07/30 09:52:43;;;;;;;1.70;1.60;;;;;;;;;;5046729;28;20271;-29
2023/07/30 09:55:10;;;;;;;1.40;1.30;;;;;;;;;;5044756;28;20247;-28
2023/07/30 09:57:39;;;;;;;1.27;1.23;;;;;;;;;;5050809;28;20205;-28
2023/07/30 10:00:08;;;;;;;1.40;1.30;;;;;;;;;;5049143;28;20231;-26
2023/07/30 10:02:38;;;;;;;1.60;1.50;;;;;;;;;;5032945;28;20205;-29
2023/07/30 10:05:07;;;;;;;1.80;1.40;;;;;;;;;;5033279;28;20196;-27
2023/07/30 10:07:35;;;;;;;2.33;1.53;;;;;;;;;;5039140;28;20212;-28
2023/07/30 10:10:03;;;;;;;2.73;1.30;;;;;;;;;;5040389;28;20228;-26
2023/07/30 10:12:32;;;;;;;4.30;1.30;;;;;;;;;;5042880;28;20212;-30
2023/07/30 10:15:02;;;;;;;1.20;1.00;;;;;;;;;;5040939;28;20314;-29
2023/07/30 10:17:29;;;;;;;1.00;1.00;;;;;;;;;;5038348;28;20295;-29
2023/07/30 10:19:56;;;;;;;2.30;1.30;;;;;;;;;;5036701;28;20238;-26
2023/07/30 10:22:25;;;;;;;2.20;1.23;;;;;;;;;;5051429;28;20499;-27
2023/07/30 10:24:58;;;;;;;1.50;1.40;;;;;;;;;;5035388;28;20208;-26
2023/07/30 10:27:26;;;;;;;3.13;1.23;;;;;;;;;;5042203;28;20215;-28
2023/07/30 10:30:09;;;;;;;2.57;1.20;;;;;;;;;;5043174;28;20233;-29
2023/07/30 10:32:39;;;;;;;1.77;1.40;;;;;;;;;;5048075;28;20196;-31
2023/07/30 10:35:06;;;;;;;1.70;1.57;;;;;;;;;;5050870;28;20231;-31
2023/07/30 10:37:34;;;;;;;1.77;1.30;;;;;;;;;;5051564;28;20223;-30
2023/07/30 10:40:01;;;;;;;1.57;1.47;;;;;;;;;;5049678;28;20221;-26
2023/07/30 10:42:35;;;;;;;3.00;1.30;;;;;;;;;;5042614;28;20228;-30
2023/07/30 10:45:02;;;;;;;1.27;1.27;;;;;;;;;;5039573;28;20233;-29
2023/07/30 10:47:30;;;;;;;1.80;1.30;;;;;;;;;;5051872;28;20212;-30
2023/07/30 10:50:02;;;;;;;1.70;1.50;;;;;;;;;;5050314;28;20225;-30
2023/07/30 10:52:29;;;;;;;1.60;1.50;;;;;;;;;;5125967;22;20263;-27
2023/07/30 10:55:01;;;;;;;2.03;1.90;;;;;;;;;;5051713;28;20225;-25
2023/07/30 10:57:31;;;;;;;3.03;2.73;;;;;;;;;;5044523;28;20249;-28
2023/07/30 10:59:59;;;;;;;1.53;1.20;;;;;;;;;;5051994;28;20249;-32
2023/07/30 11:02:26;;;;;;;1.47;1.37;;;;;;;;;;5052483;28;20228;-29
2023/07/30 11:04:54;;;;;;;1.57;1.47;;;;;;;;;;5052212;28;20215;-28
2023/07/30 11:07:21;;;;;;;1.43;1.33;;;;;;;;;;5044978;28;20198;-26
2023/07/30 11:09:59;;;;;;;2.43;1.60;;;;;;;;;;5044335;28;20236;-27
2023/07/30 11:12:27;;;;;;;1.50;1.40;;;;;;;;;;5046521;28;20206;-30
2023/07/30 11:15:01;;;;;;;1.60;1.50;;;;;;;;;;5051410;28;20236;-29
2023/07/30 11:17:28;;;;;;;1.60;1.50;;;;;;;;;;5051695;28;20201;-27
2023/07/30 11:19:56;;;;;;;1.67;1.27;;;;;;;;;;5042962;28;20226;-27
2023/07/30 11:22:31;;;;;;;1.73;1.60;;;;;;;;;;5052489;28;20216;-28
2023/07/30 11:24:58;;;;;;;1.73;1.30;;;;;;;;;;5055608;28;20201;-30
2023/07/30 11:27:25;;;;;;;1.40;1.30;;;;;;;;;;5046255;28;20202;-31
2023/07/30 11:29:56;;;;;;;1.50;1.40;;;;;;;;;;5052643;28;20233;-30
2023/07/30 11:32:25;;;;;;;1.63;1.53;;;;;;;;;;5055357;28;20202;-28
2023/07/30 11:34:52;;;;;;;2.70;1.70;;;;;;;;;;5046303;28;20230;-27
2023/07/30 11:37:21;;;;;;;1.40;1.30;;;;;;;;;;5047213;28;20201;-25
2023/07/30 11:39:48;;;;;;;1.77;1.50;;;;;;;;;;5055323;28;20222;-29
2023/07/30 11:42:16;;;;;;;1.43;1.33;;;;;;;;;;5051116;28;20205;-28
2023/07/30 11:44:43;;;;;;;1.90;1.53;;;;;;;;;;5053255;28;20232;-30
2023/07/30 11:47:10;;;;;;;1.60;1.50;;;;;;;;;;5053117;28;20208;-30
2023/07/30 11:49:37;;;;;;;1.57;1.30;;;;;;;;;;5051899;28;20224;-30
2023/07/30 11:52:08;;;;;;;1.55;1.45;;;;;;;;;;5046580;28;20214;-30
2023/07/30 11:54:36;;;;;;;1.53;1.43;;;;;;;;;;5053829;28;20312;-30
2023/07/30 11:57:04;;;;;;;1.60;1.50;;;;;;;;;;5047462;28;20206;-27
2023/07/30 11:59:32;;;;;;;2.43;1.60;;;;;;;;;;5049365;28;20226;-28
2023/07/30 12:01:59;;;;;;;1.63;1.53;;;;;;;;;;5055054;28;20206;-29
2023/07/30 12:04:26;;;;;;;2.47;1.50;;;;;;;;;;5052937;28;20202;-27
2023/07/30 12:06:54;;;;;;;2.67;1.77;;;;;;;;;;5043323;28;20231;-28
2023/07/30 12:09:22;;;;;;;1.20;1.10;;;;;;;;;;5054659;28;20279;-27
2023/07/30 12:11:52;;;;;;;1.30;1.20;;;;;;;;;;5047640;28;20210;-27
2023/07/30 12:14:20;;;;;;;1.40;1.30;;;;;;;;;;5043875;28;20225;-26
2023/07/30 12:16:47;;;;;;;1.57;1.47;;;;;;;;;;5054104;28;20205;-29
2023/07/30 12:19:14;;;;;;;2.33;1.70;;;;;;;;;;5049387;28;20218;-26
2023/07/30 12:21:42;;;;;;;2.10;1.37;;;;;;;;;;5053257;28;20206;-28
2023/07/30 12:24:09;;;;;;;3.70;1.70;;;;;;;;;;5054242;28;20213;-30
2023/07/30 12:26:36;;;;;;;2.27;1.57;;;;;;;;;;5048554;28;20230;-29
2023/07/30 12:29:04;;;;;;;2.13;1.63;;;;;;;;;;5047994;28;20229;-26
2023/07/30 12:31:32;;;;;;;1.50;1.40;;;;;;;;;;5053938;28;20258;-30
2023/07/30 12:33:59;;;;;;;1.60;1.50;;;;;;;;;;5053895;28;20375;-29
2023/07/30 12:36:26;;;;;;;1.73;1.40;;;;;;;;;;5048007;28;20219;-26
2023/07/30 12:38:53;;;;;;;2.43;1.77;;;;;;;;;;5047795;28;20240;-29
2023/07/30 12:41:25;;;;;;;1.70;1.60;;;;;;;;;;5050490;28;20347;-28
2023/07/30 12:43:53;;;;;;;2.40;1.47;;;;;;;;;;5047190;28;20220;-31
2023/07/30 12:46:21;;;;;;;2.20;1.60;;;;;;;;;;5053638;28;20406;-30
2023/07/30 12:48:48;;;;;;;2.47;2.10;;;;;;;;;;5053954;28;20235;-27
2023/07/30 12:51:16;;;;;;;5.35;1.40;;;;;;;;;;5043567;28;20219;-29
2023/07/30 12:53:43;;;;;;;1.50;1.40;;;;;;;;;;5023177;28;20207;-30
2023/07/30 12:56:10;;;;;;;1.30;1.30;;;;;;;;;;5024509;28;20202;-29
2023/07/30 12:58:38;;;;;;;2.50;1.70;;;;;;;;;;5033505;28;20230;-29
2023/07/30 13:01:06;;;;;;;1.37;1.20;;;;;;;;;;5033469;28;20199;-24
2023/07/30 13:03:35;;;;;;;1.50;1.40;;;;;;;;;;5033981;28;20218;-25
2023/07/30 13:06:02;;;;;;;1.73;1.50;;;;;;;;;;5031525;28;20204;-26
2023/07/30 13:08:29;;;;;;;1.05;1.02;;;;;;;;;;5032852;28;20222;-25
2023/07/30 13:10:56;;;;;;;2.20;1.30;;;;;;;;;;5034073;28;20206;-24
2023/07/30 13:13:23;;;;;;;3.60;1.60;;;;;;;;;;5020109;28;20206;-27
2023/07/30 13:15:51;;;;;;;2.78;1.60;;;;;;;;;;5030648;28;20226;-26
2023/07/30 13:18:18;;;;;;;1.67;1.40;;;;;;;;;;5033010;28;20205;-27
2023/07/30 13:20:47;;;;;;;2.15;1.27;;;;;;;;;;5028587;28;20206;-25
2023/07/30 13:23:14;;;;;;;2.13;1.92;;;;;;;;;;5029369;28;20293;-25
2023/07/30 13:25:41;;;;;;;1.43;1.33;;;;;;;;;;5033303;28;20201;-24
2023/07/30 13:28:09;;;;;;;2.20;1.50;;;;;;;;;;5026119;28;20206;-25
2023/07/30 13:30:36;;;;;;;2.53;1.40;;;;;;;;;;5028723;28;20241;-25
2023/07/30 13:33:03;;;;;;;1.50;1.40;;;;;;;;;;5033490;28;20206;-27
2023/07/30 13:35:30;;;;;;;1.53;1.43;;;;;;;;;;5026225;28;20235;-24
2023/07/30 13:37:59;;;;;;;2.13;1.47;;;;;;;;;;5030934;28;20221;-27
2023/07/30 13:40:26;;;;;;;1.50;1.40;;;;;;;;;;5033466;28;20229;-26
2023/07/30 13:42:53;;;;;;;2.57;1.70;;;;;;;;;;5025322;28;20207;-25
2023/07/30 13:45:20;;;;;;;3.57;2.17;;;;;;;;;;5026927;28;20198;-26
2023/07/30 13:47:48;;;;;;;3.13;1.40;;;;;;;;;;5031828;28;20293;-39
2023/07/30 13:50:15;;;;;;;2.40;1.50;;;;;;;;;;5031764;28;20226;-33
2023/07/30 13:52:42;;;;;;;4.00;1.37;;;;;;;;;;5019279;28;20223;-38
2023/07/30 13:55:10;;;;;;;1.93;1.40;;;;;;;;;;5024201;28;20222;-32
2023/07/30 13:57:37;;;;;;;1.23;1.20;;;;;;;;;;5024018;28;20203;-33
2023/07/30 14:00:06;;;;;;;1.20;1.20;;;;;;;;;;5020637;28;20234;-36
2023/07/30 14:02:33;;;;;;;1.80;1.53;;;;;;;;;;5032782;28;20203;-35
2023/07/30 14:05:00;;;;;;;1.67;1.25;;;;;;;;;;5030541;28;20209;-33
2023/07/30 14:07:29;;;;;;;3.20;1.57;;;;;;;;;;5027054;28;20206;-41
2023/07/30 14:09:56;;;;;;;1.67;1.13;;;;;;;;;;5022478;28;20225;-35
2023/07/30 14:12:24;;;;;;;4.03;1.50;;;;;;;;;;5020418;28;20571;-29
2023/07/30 14:14:51;;;;;;;1.27;1.17;;;;;;;;;;5028277;28;20218;-29
2023/07/30 14:17:18;;;;;;;1.00;1.00;;;;;;;;;;5025383;28;20210;-38
2023/07/30 14:19:46;;;;;;;2.00;1.53;;;;;;;;;;5030473;28;20261;-30
2023/07/30 14:22:13;;;;;;;1.30;1.20;;;;;;;;;;5033347;28;20209;-34
2023/07/30 14:24:43;;;;;;;2.33;1.43;;;;;;;;;;5032139;28;20217;-33
2023/07/30 14:27:10;;;;;;;1.67;1.10;;;;;;;;;;5016846;28;20289;-34
2023/07/30 14:29:38;;;;;;;1.77;1.13;;;;;;;;;;5020074;28;20285;-33
2023/07/30 14:32:06;;;;;;;1.67;1.30;;;;;;;;;;5020727;28;20237;-34
2023/07/30 14:34:33;;;;;;;1.33;1.20;;;;;;;;;;5011944;28;20262;-33
2023/07/30 14:37:00;;;;;;;3.27;1.43;;;;;;;;;;5011972;28;20214;-37
2023/07/30 14:39:27;;;;;;;2.03;1.23;;;;;;;;;;5021716;28;20546;-38
2023/07/30 14:41:54;;;;;;;1.40;1.30;;;;;;;;;;5015212;28;20217;-31
2023/07/30 14:44:21;;;;;;;2.17;1.50;;;;;;;;;;5031795;28;20272;-36
2023/07/30 14:46:50;;;;;;;1.40;1.30;;;;;;;;;;5031975;28;20213;-31